sensor_id;sensor_type;location;lat;lon;timestamp;P1;durP1;ratioP1;P2;durP2;ratioP2
76574;SDS011;65439;50.948;6.988;2023-07-02T00:01:16;9.67;;;3.80;;
76574;SDS011;65439;50.948;6.988;2023-07-02T00:03:41;5.07;;;3.50;;
76574;SDS011;65439;50.948;6.988;2023-07-02T00:06:06;6.47;;;3.30;;
76574;SDS011;65439;50.948;6.988;2023-07-02T00:08:32;6.73;;;3.27;;
76574;SDS011;65439;50.948;6.988;2023-07-02T00:10:57;6.30;;;3.43;;
76574;SDS011;65439;50.948;6.988;2023-07-02T00:13:22;7.23;;;3.87;;
76574;SDS011;65439;50.948;6.988;2023-07-02T00:15:48;8.02;;;3.72;;
76574;SDS011;65439;50.948;6.988;2023-07-02T00:18:13;6.73;;;4.47;;
76574;SDS011;65439;50.948;6.988;2023-07-02T00:20:41;6.70;;;3.90;;
76574;SDS011;65439;50.948;6.988;2023-07-02T00:23:07;5.88;;;3.15;;
76574;SDS011;65439;50.948;6.988;2023-07-02T00:25:35;6.07;;;3.40;;
76574;SDS011;65439;50.948;6.988;2023-07-02T00:28:00;7.53;;;3.97;;
76574;SDS011;65439;50.948;6.988;2023-07-02T00:30:26;8.23;;;3.53;;
76574;SDS011;65439;50.948;6.988;2023-07-02T00:32:51;8.48;;;3.90;;
76574;SDS011;65439;50.948;6.988;2023-07-02T00:35:16;9.57;;;3.70;;
76574;SDS011;65439;50.948;6.988;2023-07-02T00:37:41;6.80;;;3.87;;
76574;SDS011;65439;50.948;6.988;2023-07-02T00:40:07;6.50;;;3.85;;
76574;SDS011;65439;50.948;6.988;2023-07-02T00:42:33;6.10;;;3.78;;
76574;SDS011;65439;50.948;6.988;2023-07-02T00:44:58;7.63;;;4.00;;
76574;SDS011;65439;50.948;6.988;2023-07-02T00:47:27;6.05;;;3.70;;
76574;SDS011;65439;50.948;6.988;2023-07-02T00:49:53;9.77;;;3.70;;
76574;SDS011;65439;50.948;6.988;2023-07-02T00:52:19;9.98;;;4.88;;
76574;SDS011;65439;50.948;6.988;2023-07-02T00:54:45;6.45;;;4.75;;
76574;SDS011;65439;50.948;6.988;2023-07-02T00:57:10;5.78;;;3.50;;
76574;SDS011;65439;50.948;6.988;2023-07-02T00:59:36;6.88;;;3.90;;
76574;SDS011;65439;50.948;6.988;2023-07-02T01:02:03;10.38;;;4.00;;
76574;SDS011;65439;50.948;6.988;2023-07-02T01:04:30;9.50;;;4.10;;
76574;SDS011;65439;50.948;6.988;2023-07-02T01:06:55;5.55;;;3.33;;
76574;SDS011;65439;50.948;6.988;2023-07-02T01:09:22;8.52;;;4.07;;
76574;SDS011;65439;50.948;6.988;2023-07-02T01:11:51;8.23;;;4.35;;
76574;SDS011;65439;50.948;6.988;2023-07-02T01:17:10;9.60;;;4.70;;
76574;SDS011;65439;50.948;6.988;2023-07-02T01:19:57;6.95;;;3.92;;
76574;SDS011;65439;50.948;6.988;2023-07-02T01:22:27;6.97;;;4.57;;
76574;SDS011;65439;50.948;6.988;2023-07-02T01:24:53;11.85;;;5.63;;
76574;SDS011;65439;50.948;6.988;2023-07-02T01:27:19;9.70;;;4.53;;
76574;SDS011;65439;50.948;6.988;2023-07-02T01:29:45;12.07;;;4.93;;
76574;SDS011;65439;50.948;6.988;2023-07-02T01:32:11;13.85;;;5.38;;
76574;SDS011;65439;50.948;6.988;2023-07-02T01:34:37;7.90;;;4.53;;
76574;SDS011;65439;50.948;6.988;2023-07-02T01:37:03;11.23;;;5.60;;
76574;SDS011;65439;50.948;6.988;2023-07-02T01:39:29;10.57;;;5.65;;
76574;SDS011;65439;50.948;6.988;2023-07-02T01:41:55;11.48;;;5.13;;
76574;SDS011;65439;50.948;6.988;2023-07-02T01:44:31;12.02;;;5.88;;
76574;SDS011;65439;50.948;6.988;2023-07-02T01:46:57;9.20;;;5.20;;
76574;SDS011;65439;50.948;6.988;2023-07-02T01:51:49;10.83;;;5.80;;
76574;SDS011;65439;50.948;6.988;2023-07-02T01:54:15;12.55;;;6.28;;
76574;SDS011;65439;50.948;6.988;2023-07-02T01:56:40;10.80;;;6.23;;
76574;SDS011;65439;50.948;6.988;2023-07-02T01:59:06;15.83;;;6.33;;
76574;SDS011;65439;50.948;6.988;2023-07-02T02:01:31;11.50;;;6.55;;
76574;SDS011;65439;50.948;6.988;2023-07-02T02:03:57;12.82;;;6.82;;
76574;SDS011;65439;50.948;6.988;2023-07-02T02:06:23;12.23;;;6.75;;
76574;SDS011;65439;50.948;6.988;2023-07-02T02:08:48;15.73;;;6.97;;
76574;SDS011;65439;50.948;6.988;2023-07-02T02:11:13;13.53;;;7.33;;
76574;SDS011;65439;50.948;6.988;2023-07-02T02:13:39;16.90;;;8.37;;
76574;SDS011;65439;50.948;6.988;2023-07-02T02:16:04;17.10;;;7.57;;
76574;SDS011;65439;50.948;6.988;2023-07-02T02:18:29;14.40;;;7.53;;
76574;SDS011;65439;50.948;6.988;2023-07-02T02:20:55;12.43;;;7.53;;
76574;SDS011;65439;50.948;6.988;2023-07-02T02:23:20;18.43;;;8.27;;
76574;SDS011;65439;50.948;6.988;2023-07-02T02:25:45;19.17;;;8.23;;
76574;SDS011;65439;50.948;6.988;2023-07-02T02:28:11;13.65;;;8.38;;
76574;SDS011;65439;50.948;6.988;2023-07-02T02:30:36;15.50;;;7.90;;
76574;SDS011;65439;50.948;6.988;2023-07-02T02:33:01;21.20;;;8.27;;
76574;SDS011;65439;50.948;6.988;2023-07-02T02:35:26;15.67;;;7.67;;
76574;SDS011;65439;50.948;6.988;2023-07-02T02:37:52;16.20;;;7.87;;
76574;SDS011;65439;50.948;6.988;2023-07-02T02:40:17;19.27;;;7.30;;
76574;SDS011;65439;50.948;6.988;2023-07-02T02:42:42;18.50;;;7.80;;
76574;SDS011;65439;50.948;6.988;2023-07-02T02:45:08;18.10;;;9.43;;
76574;SDS011;65439;50.948;6.988;2023-07-02T02:47:33;21.33;;;9.32;;
76574;SDS011;65439;50.948;6.988;2023-07-02T02:49:59;19.10;;;8.90;;
76574;SDS011;65439;50.948;6.988;2023-07-02T02:52:24;16.10;;;8.82;;
76574;SDS011;65439;50.948;6.988;2023-07-02T02:54:50;19.77;;;8.98;;
76574;SDS011;65439;50.948;6.988;2023-07-02T02:57:17;17.05;;;10.15;;
76574;SDS011;65439;50.948;6.988;2023-07-02T02:59:43;19.20;;;9.03;;
76574;SDS011;65439;50.948;6.988;2023-07-02T03:02:08;16.73;;;8.40;;
76574;SDS011;65439;50.948;6.988;2023-07-02T03:04:34;17.25;;;9.38;;
76574;SDS011;65439;50.948;6.988;2023-07-02T03:07:00;20.58;;;9.52;;
76574;SDS011;65439;50.948;6.988;2023-07-02T03:09:25;20.50;;;8.60;;
76574;SDS011;65439;50.948;6.988;2023-07-02T03:11:50;17.93;;;10.67;;
76574;SDS011;65439;50.948;6.988;2023-07-02T03:14:16;19.13;;;9.50;;
76574;SDS011;65439;50.948;6.988;2023-07-02T03:16:41;18.75;;;9.35;;
76574;SDS011;65439;50.948;6.988;2023-07-02T03:19:07;18.25;;;9.68;;
76574;SDS011;65439;50.948;6.988;2023-07-02T03:21:33;16.77;;;8.35;;
76574;SDS011;65439;50.948;6.988;2023-07-02T03:23:58;20.17;;;9.60;;
76574;SDS011;65439;50.948;6.988;2023-07-02T03:26:23;23.23;;;10.20;;
76574;SDS011;65439;50.948;6.988;2023-07-02T03:28:49;17.87;;;9.33;;
76574;SDS011;65439;50.948;6.988;2023-07-02T03:31:14;22.90;;;8.93;;
76574;SDS011;65439;50.948;6.988;2023-07-02T03:33:40;21.63;;;10.65;;
76574;SDS011;65439;50.948;6.988;2023-07-02T03:36:05;21.90;;;9.50;;
76574;SDS011;65439;50.948;6.988;2023-07-02T03:38:31;22.58;;;10.18;;
76574;SDS011;65439;50.948;6.988;2023-07-02T03:40:57;19.45;;;10.57;;
76574;SDS011;65439;50.948;6.988;2023-07-02T03:43:22;18.63;;;10.30;;
76574;SDS011;65439;50.948;6.988;2023-07-02T03:45:49;20.23;;;9.73;;
76574;SDS011;65439;50.948;6.988;2023-07-02T03:48:15;18.00;;;9.87;;
76574;SDS011;65439;50.948;6.988;2023-07-02T03:50:40;20.00;;;9.03;;
76574;SDS011;65439;50.948;6.988;2023-07-02T03:53:05;21.07;;;10.53;;
76574;SDS011;65439;50.948;6.988;2023-07-02T03:55:31;19.60;;;10.00;;
76574;SDS011;65439;50.948;6.988;2023-07-02T03:57:56;18.40;;;10.50;;
76574;SDS011;65439;50.948;6.988;2023-07-02T04:00:21;20.57;;;10.47;;
76574;SDS011;65439;50.948;6.988;2023-07-02T04:02:46;21.70;;;11.33;;
76574;SDS011;65439;50.948;6.988;2023-07-02T04:05:12;24.50;;;11.60;;
76574;SDS011;65439;50.948;6.988;2023-07-02T04:07:37;25.17;;;12.53;;
76574;SDS011;65439;50.948;6.988;2023-07-02T04:10:02;21.57;;;11.53;;
76574;SDS011;65439;50.948;6.988;2023-07-02T04:12:28;24.10;;;11.13;;
76574;SDS011;65439;50.948;6.988;2023-07-02T04:14:53;25.25;;;11.98;;
76574;SDS011;65439;50.948;6.988;2023-07-02T04:17:19;22.23;;;12.93;;
76574;SDS011;65439;50.948;6.988;2023-07-02T04:19:44;25.63;;;11.07;;
76574;SDS011;65439;50.948;6.988;2023-07-02T04:22:09;27.50;;;12.10;;
76574;SDS011;65439;50.948;6.988;2023-07-02T04:24:35;20.23;;;11.17;;
76574;SDS011;65439;50.948;6.988;2023-07-02T04:27:00;20.00;;;11.07;;
76574;SDS011;65439;50.948;6.988;2023-07-02T04:29:25;20.30;;;10.90;;
76574;SDS011;65439;50.948;6.988;2023-07-02T04:31:51;24.93;;;11.80;;
76574;SDS011;65439;50.948;6.988;2023-07-02T04:34:16;19.17;;;10.40;;
76574;SDS011;65439;50.948;6.988;2023-07-02T04:36:41;20.23;;;12.53;;
76574;SDS011;65439;50.948;6.988;2023-07-02T04:39:08;23.35;;;11.50;;
76574;SDS011;65439;50.948;6.988;2023-07-02T04:41:34;22.20;;;12.02;;
76574;SDS011;65439;50.948;6.988;2023-07-02T04:43:59;30.13;;;13.97;;
76574;SDS011;65439;50.948;6.988;2023-07-02T04:46:25;33.28;;;13.75;;
76574;SDS011;65439;50.948;6.988;2023-07-02T04:48:51;23.42;;;12.40;;
76574;SDS011;65439;50.948;6.988;2023-07-02T04:51:16;30.27;;;13.40;;
76574;SDS011;65439;50.948;6.988;2023-07-02T04:53:41;22.57;;;12.03;;
76574;SDS011;65439;50.948;6.988;2023-07-02T04:56:07;27.95;;;14.07;;
76574;SDS011;65439;50.948;6.988;2023-07-02T04:58:32;30.30;;;13.68;;
76574;SDS011;65439;50.948;6.988;2023-07-02T05:00:58;26.42;;;12.93;;
76574;SDS011;65439;50.948;6.988;2023-07-02T05:03:23;28.33;;;13.87;;
76574;SDS011;65439;50.948;6.988;2023-07-02T05:05:48;25.67;;;13.03;;
76574;SDS011;65439;50.948;6.988;2023-07-02T05:08:14;22.90;;;13.70;;
76574;SDS011;65439;50.948;6.988;2023-07-02T05:10:39;24.02;;;13.18;;
76574;SDS011;65439;50.948;6.988;2023-07-02T05:13:04;29.43;;;13.90;;
76574;SDS011;65439;50.948;6.988;2023-07-02T05:15:30;28.77;;;14.03;;
76574;SDS011;65439;50.948;6.988;2023-07-02T05:17:55;28.67;;;13.57;;
76574;SDS011;65439;50.948;6.988;2023-07-02T05:20:20;32.47;;;15.03;;
76574;SDS011;65439;50.948;6.988;2023-07-02T05:22:46;29.53;;;14.27;;
76574;SDS011;65439;50.948;6.988;2023-07-02T05:25:11;25.57;;;13.17;;
76574;SDS011;65439;50.948;6.988;2023-07-02T05:27:36;28.70;;;14.00;;
76574;SDS011;65439;50.948;6.988;2023-07-02T05:30:02;32.67;;;14.68;;
76574;SDS011;65439;50.948;6.988;2023-07-02T05:32:27;30.20;;;14.02;;
76574;SDS011;65439;50.948;6.988;2023-07-02T05:34:53;25.13;;;13.10;;
76574;SDS011;65439;50.948;6.988;2023-07-02T05:37:18;28.50;;;14.03;;
76574;SDS011;65439;50.948;6.988;2023-07-02T05:39:43;33.27;;;15.03;;
76574;SDS011;65439;50.948;6.988;2023-07-02T05:42:08;27.00;;;13.77;;
76574;SDS011;65439;50.948;6.988;2023-07-02T05:44:34;31.80;;;15.07;;
76574;SDS011;65439;50.948;6.988;2023-07-02T05:46:59;26.00;;;14.50;;
76574;SDS011;65439;50.948;6.988;2023-07-02T05:49:24;33.90;;;14.37;;
76574;SDS011;65439;50.948;6.988;2023-07-02T05:54:16;31.83;;;15.83;;
76574;SDS011;65439;50.948;6.988;2023-07-02T05:56:41;29.27;;;16.07;;
76574;SDS011;65439;50.948;6.988;2023-07-02T05:59:07;31.97;;;15.50;;
76574;SDS011;65439;50.948;6.988;2023-07-02T06:01:32;29.20;;;14.57;;
76574;SDS011;65439;50.948;6.988;2023-07-02T06:03:57;33.03;;;15.43;;
76574;SDS011;65439;50.948;6.988;2023-07-02T06:06:23;36.87;;;16.67;;
76574;SDS011;65439;50.948;6.988;2023-07-02T06:08:49;30.83;;;14.80;;
76574;SDS011;65439;50.948;6.988;2023-07-02T06:11:15;26.02;;;14.27;;
76574;SDS011;65439;50.948;6.988;2023-07-02T06:13:40;31.05;;;15.27;;
76574;SDS011;65439;50.948;6.988;2023-07-02T06:16:05;28.43;;;15.57;;
76574;SDS011;65439;50.948;6.988;2023-07-02T06:18:31;26.93;;;15.43;;
76574;SDS011;65439;50.948;6.988;2023-07-02T06:20:56;26.23;;;13.60;;
76574;SDS011;65439;50.948;6.988;2023-07-02T06:23:21;30.37;;;16.77;;
76574;SDS011;65439;50.948;6.988;2023-07-02T06:25:46;24.87;;;15.13;;
76574;SDS011;65439;50.948;6.988;2023-07-02T06:28:12;30.13;;;14.07;;
76574;SDS011;65439;50.948;6.988;2023-07-02T06:30:37;31.10;;;15.03;;
76574;SDS011;65439;50.948;6.988;2023-07-02T06:33:02;23.43;;;14.10;;
76574;SDS011;65439;50.948;6.988;2023-07-02T06:35:28;33.90;;;15.77;;
76574;SDS011;65439;50.948;6.988;2023-07-02T06:37:53;30.37;;;15.47;;
76574;SDS011;65439;50.948;6.988;2023-07-02T06:40:19;27.10;;;14.60;;
76574;SDS011;65439;50.948;6.988;2023-07-02T06:42:45;29.70;;;14.02;;
76574;SDS011;65439;50.948;6.988;2023-07-02T06:45:10;27.33;;;13.80;;
76574;SDS011;65439;50.948;6.988;2023-07-02T06:47:36;28.60;;;13.67;;
76574;SDS011;65439;50.948;6.988;2023-07-02T06:50:01;26.77;;;13.53;;
76574;SDS011;65439;50.948;6.988;2023-07-02T06:52:27;29.55;;;13.88;;
76574;SDS011;65439;50.948;6.988;2023-07-02T06:54:52;26.53;;;12.47;;
76574;SDS011;65439;50.948;6.988;2023-07-02T06:57:17;28.43;;;13.80;;
76574;SDS011;65439;50.948;6.988;2023-07-02T06:59:42;29.97;;;14.60;;
76574;SDS011;65439;50.948;6.988;2023-07-02T07:02:08;27.00;;;13.52;;
76574;SDS011;65439;50.948;6.988;2023-07-02T07:04:33;26.30;;;13.30;;
76574;SDS011;65439;50.948;6.988;2023-07-02T07:07:01;28.60;;;13.95;;
76574;SDS011;65439;50.948;6.988;2023-07-02T07:09:30;26.95;;;13.50;;
76574;SDS011;65439;50.948;6.988;2023-07-02T07:11:55;27.83;;;14.20;;
76574;SDS011;65439;50.948;6.988;2023-07-02T07:14:20;28.20;;;13.57;;
76574;SDS011;65439;50.948;6.988;2023-07-02T07:16:46;29.87;;;14.37;;
76574;SDS011;65439;50.948;6.988;2023-07-02T07:19:11;27.77;;;12.97;;
76574;SDS011;65439;50.948;6.988;2023-07-02T07:21:36;30.53;;;13.70;;
76574;SDS011;65439;50.948;6.988;2023-07-02T07:24:02;26.10;;;13.57;;
76574;SDS011;65439;50.948;6.988;2023-07-02T07:26:27;28.48;;;14.13;;
76574;SDS011;65439;50.948;6.988;2023-07-02T07:28:52;33.00;;;14.88;;
76574;SDS011;65439;50.948;6.988;2023-07-02T07:31:21;27.48;;;13.93;;
76574;SDS011;65439;50.948;6.988;2023-07-02T07:33:46;27.02;;;12.15;;
76574;SDS011;65439;50.948;6.988;2023-07-02T07:36:11;24.90;;;13.83;;
76574;SDS011;65439;50.948;6.988;2023-07-02T07:38:37;22.65;;;12.40;;
76574;SDS011;65439;50.948;6.988;2023-07-02T07:41:02;28.90;;;12.50;;
76574;SDS011;65439;50.948;6.988;2023-07-02T07:43:28;29.63;;;13.57;;
76574;SDS011;65439;50.948;6.988;2023-07-02T07:45:53;22.33;;;12.07;;
76574;SDS011;65439;50.948;6.988;2023-07-02T07:50:46;25.38;;;10.75;;
76574;SDS011;65439;50.948;6.988;2023-07-02T07:53:11;27.52;;;12.27;;
76574;SDS011;65439;50.948;6.988;2023-07-02T07:55:37;28.20;;;12.07;;
76574;SDS011;65439;50.948;6.988;2023-07-02T07:58:02;28.40;;;13.57;;
76574;SDS011;65439;50.948;6.988;2023-07-02T08:00:27;25.50;;;11.67;;
76574;SDS011;65439;50.948;6.988;2023-07-02T08:02:53;28.83;;;12.43;;
76574;SDS011;65439;50.948;6.988;2023-07-02T08:05:20;23.85;;;11.45;;
76574;SDS011;65439;50.948;6.988;2023-07-02T08:07:45;31.97;;;13.60;;
76574;SDS011;65439;50.948;6.988;2023-07-02T08:10:11;25.93;;;12.77;;
76574;SDS011;65439;50.948;6.988;2023-07-02T08:12:36;26.60;;;12.93;;
76574;SDS011;65439;50.948;6.988;2023-07-02T08:15:02;23.05;;;12.35;;
76574;SDS011;65439;50.948;6.988;2023-07-02T08:17:27;26.88;;;12.73;;
76574;SDS011;65439;50.948;6.988;2023-07-02T08:19:52;23.07;;;12.70;;
76574;SDS011;65439;50.948;6.988;2023-07-02T08:22:18;22.10;;;10.37;;
76574;SDS011;65439;50.948;6.988;2023-07-02T08:24:43;26.20;;;11.88;;
76574;SDS011;65439;50.948;6.988;2023-07-02T08:27:09;25.23;;;12.02;;
76574;SDS011;65439;50.948;6.988;2023-07-02T08:29:35;23.45;;;10.73;;
76574;SDS011;65439;50.948;6.988;2023-07-02T08:32:00;26.00;;;12.80;;
76574;SDS011;65439;50.948;6.988;2023-07-02T08:34:26;24.03;;;11.40;;
76574;SDS011;65439;50.948;6.988;2023-07-02T08:36:51;29.17;;;12.50;;
76574;SDS011;65439;50.948;6.988;2023-07-02T08:39:16;21.87;;;10.67;;
76574;SDS011;65439;50.948;6.988;2023-07-02T08:41:45;25.77;;;11.15;;
76574;SDS011;65439;50.948;6.988;2023-07-02T08:44:11;21.65;;;11.15;;
76574;SDS011;65439;50.948;6.988;2023-07-02T08:46:40;21.15;;;11.18;;
76574;SDS011;65439;50.948;6.988;2023-07-02T08:49:06;21.40;;;10.40;;
76574;SDS011;65439;50.948;6.988;2023-07-02T08:51:32;21.45;;;11.73;;
76574;SDS011;65439;50.948;6.988;2023-07-02T08:53:57;22.33;;;10.60;;
76574;SDS011;65439;50.948;6.988;2023-07-02T08:56:23;25.83;;;10.43;;
76574;SDS011;65439;50.948;6.988;2023-07-02T08:58:49;29.33;;;14.45;;
76574;SDS011;65439;50.948;6.988;2023-07-02T09:01:14;22.23;;;12.10;;
76574;SDS011;65439;50.948;6.988;2023-07-02T09:03:40;22.25;;;11.05;;
76574;SDS011;65439;50.948;6.988;2023-07-02T09:06:06;22.63;;;10.13;;
76574;SDS011;65439;50.948;6.988;2023-07-02T09:08:32;20.60;;;10.38;;
76574;SDS011;65439;50.948;6.988;2023-07-02T09:11:11;19.33;;;9.02;;
76574;SDS011;65439;50.948;6.988;2023-07-02T09:16:28;22.83;;;10.57;;
76574;SDS011;65439;50.948;6.988;2023-07-02T09:18:55;23.98;;;10.93;;
76574;SDS011;65439;50.948;6.988;2023-07-02T09:21:41;24.88;;;10.77;;
76574;SDS011;65439;50.948;6.988;2023-07-02T09:24:12;19.65;;;9.93;;
76574;SDS011;65439;50.948;6.988;2023-07-02T09:26:41;20.92;;;10.45;;
76574;SDS011;65439;50.948;6.988;2023-07-02T09:29:10;25.10;;;12.93;;
76574;SDS011;65439;50.948;6.988;2023-07-02T09:31:45;20.92;;;10.60;;
76574;SDS011;65439;50.948;6.988;2023-07-02T09:34:11;22.65;;;11.15;;
76574;SDS011;65439;50.948;6.988;2023-07-02T09:36:38;22.13;;;11.63;;
76574;SDS011;65439;50.948;6.988;2023-07-02T09:39:06;26.08;;;11.15;;
76574;SDS011;65439;50.948;6.988;2023-07-02T09:41:33;27.42;;;12.70;;
76574;SDS011;65439;50.948;6.988;2023-07-02T09:43:58;22.02;;;12.43;;
76574;SDS011;65439;50.948;6.988;2023-07-02T09:46:25;22.10;;;11.77;;
76574;SDS011;65439;50.948;6.988;2023-07-02T09:48:51;23.33;;;12.05;;
76574;SDS011;65439;50.948;6.988;2023-07-02T09:51:16;23.95;;;11.30;;
76574;SDS011;65439;50.948;6.988;2023-07-02T09:53:41;23.00;;;11.68;;
76574;SDS011;65439;50.948;6.988;2023-07-02T09:56:07;22.30;;;11.88;;
76574;SDS011;65439;50.948;6.988;2023-07-02T10:00:58;31.40;;;12.03;;
76574;SDS011;65439;50.948;6.988;2023-07-02T10:03:30;21.45;;;12.48;;
76574;SDS011;65439;50.948;6.988;2023-07-02T10:06:03;26.75;;;12.57;;
76574;SDS011;65439;50.948;6.988;2023-07-02T10:08:30;27.75;;;12.93;;
76574;SDS011;65439;50.948;6.988;2023-07-02T10:11:06;23.13;;;12.88;;
76574;SDS011;65439;50.948;6.988;2023-07-02T10:13:38;22.25;;;12.07;;
76574;SDS011;65439;50.948;6.988;2023-07-02T10:16:04;23.17;;;12.00;;
76574;SDS011;65439;50.948;6.988;2023-07-02T10:18:30;23.85;;;13.60;;
76574;SDS011;65439;50.948;6.988;2023-07-02T10:20:55;31.73;;;13.52;;
76574;SDS011;65439;50.948;6.988;2023-07-02T10:23:22;24.13;;;11.60;;
76574;SDS011;65439;50.948;6.988;2023-07-02T10:25:57;19.52;;;12.25;;
76574;SDS011;65439;50.948;6.988;2023-07-02T10:28:23;22.92;;;11.45;;
76574;SDS011;65439;50.948;6.988;2023-07-02T10:30:51;21.95;;;11.15;;
76574;SDS011;65439;50.948;6.988;2023-07-02T10:33:18;23.23;;;11.75;;
76574;SDS011;65439;50.948;6.988;2023-07-02T10:35:44;20.77;;;11.77;;
76574;SDS011;65439;50.948;6.988;2023-07-02T10:38:17;29.17;;;11.13;;
76574;SDS011;65439;50.948;6.988;2023-07-02T10:40:44;20.83;;;12.30;;
76574;SDS011;65439;50.948;6.988;2023-07-02T10:43:09;20.27;;;10.65;;
76574;SDS011;65439;50.948;6.988;2023-07-02T10:45:35;20.90;;;10.37;;
76574;SDS011;65439;50.948;6.988;2023-07-02T10:48:01;24.85;;;10.48;;
76574;SDS011;65439;50.948;6.988;2023-07-02T10:50:28;27.02;;;11.27;;
76574;SDS011;65439;50.948;6.988;2023-07-02T10:52:53;18.70;;;10.10;;
76574;SDS011;65439;50.948;6.988;2023-07-02T10:55:19;23.75;;;11.35;;
76574;SDS011;65439;50.948;6.988;2023-07-02T11:00:10;24.77;;;11.80;;
76574;SDS011;65439;50.948;6.988;2023-07-02T11:02:39;21.42;;;10.57;;
76574;SDS011;65439;50.948;6.988;2023-07-02T11:05:05;17.98;;;9.75;;
76574;SDS011;65439;50.948;6.988;2023-07-02T11:07:31;28.27;;;12.30;;
76574;SDS011;65439;50.948;6.988;2023-07-02T11:09:57;22.77;;;10.27;;
76574;SDS011;65439;50.948;6.988;2023-07-02T11:12:29;21.85;;;11.55;;
76574;SDS011;65439;50.948;6.988;2023-07-02T11:14:59;21.77;;;10.18;;
76574;SDS011;65439;50.948;6.988;2023-07-02T11:17:32;21.73;;;10.98;;
76574;SDS011;65439;50.948;6.988;2023-07-02T11:19:57;25.63;;;11.53;;
76574;SDS011;65439;50.948;6.988;2023-07-02T11:22:30;25.37;;;12.23;;
76574;SDS011;65439;50.948;6.988;2023-07-02T11:25:14;23.25;;;11.00;;
76574;SDS011;65439;50.948;6.988;2023-07-02T11:27:41;21.95;;;11.18;;
76574;SDS011;65439;50.948;6.988;2023-07-02T11:30:07;23.02;;;12.00;;
76574;SDS011;65439;50.948;6.988;2023-07-02T11:32:51;22.35;;;11.27;;
76574;SDS011;65439;50.948;6.988;2023-07-02T11:35:18;20.00;;;10.57;;
76574;SDS011;65439;50.948;6.988;2023-07-02T11:37:44;22.17;;;10.35;;
76574;SDS011;65439;50.948;6.988;2023-07-02T11:40:10;27.35;;;11.35;;
76574;SDS011;65439;50.948;6.988;2023-07-02T11:42:35;24.55;;;11.57;;
76574;SDS011;65439;50.948;6.988;2023-07-02T11:45:01;21.17;;;12.65;;
76574;SDS011;65439;50.948;6.988;2023-07-02T11:47:26;23.38;;;11.95;;
76574;SDS011;65439;50.948;6.988;2023-07-02T11:49:52;23.42;;;11.00;;
76574;SDS011;65439;50.948;6.988;2023-07-02T11:52:18;22.52;;;12.05;;
76574;SDS011;65439;50.948;6.988;2023-07-02T11:54:43;22.13;;;11.57;;
76574;SDS011;65439;50.948;6.988;2023-07-02T11:57:08;21.60;;;10.33;;
76574;SDS011;65439;50.948;6.988;2023-07-02T11:59:33;25.63;;;10.40;;
76574;SDS011;65439;50.948;6.988;2023-07-02T12:01:59;20.58;;;10.70;;
76574;SDS011;65439;50.948;6.988;2023-07-02T12:04:24;24.00;;;10.33;;
76574;SDS011;65439;50.948;6.988;2023-07-02T12:06:50;18.92;;;9.70;;
76574;SDS011;65439;50.948;6.988;2023-07-02T12:09:15;22.97;;;11.27;;
76574;SDS011;65439;50.948;6.988;2023-07-02T12:11:40;21.38;;;10.38;;
76574;SDS011;65439;50.948;6.988;2023-07-02T12:14:06;18.95;;;10.40;;
76574;SDS011;65439;50.948;6.988;2023-07-02T12:16:31;19.93;;;11.33;;
76574;SDS011;65439;50.948;6.988;2023-07-02T12:18:57;19.87;;;9.57;;
76574;SDS011;65439;50.948;6.988;2023-07-02T12:21:22;19.13;;;8.93;;
76574;SDS011;65439;50.948;6.988;2023-07-02T12:23:47;21.58;;;10.27;;
76574;SDS011;65439;50.948;6.988;2023-07-02T12:26:13;17.57;;;9.80;;
76574;SDS011;65439;50.948;6.988;2023-07-02T12:28:38;17.15;;;9.93;;
76574;SDS011;65439;50.948;6.988;2023-07-02T12:31:03;16.60;;;8.30;;
76574;SDS011;65439;50.948;6.988;2023-07-02T12:33:29;15.20;;;7.10;;
76574;SDS011;65439;50.948;6.988;2023-07-02T12:35:54;16.37;;;7.80;;
76574;SDS011;65439;50.948;6.988;2023-07-02T12:38:19;18.33;;;8.63;;
76574;SDS011;65439;50.948;6.988;2023-07-02T12:40:45;13.47;;;7.77;;
76574;SDS011;65439;50.948;6.988;2023-07-02T12:43:10;14.93;;;7.70;;
76574;SDS011;65439;50.948;6.988;2023-07-02T12:45:36;16.17;;;7.27;;
76574;SDS011;65439;50.948;6.988;2023-07-02T12:48:01;16.27;;;7.88;;
76574;SDS011;65439;50.948;6.988;2023-07-02T12:50:26;17.03;;;8.17;;
76574;SDS011;65439;50.948;6.988;2023-07-02T12:52:52;15.77;;;7.72;;
76574;SDS011;65439;50.948;6.988;2023-07-02T12:55:17;13.93;;;7.90;;
76574;SDS011;65439;50.948;6.988;2023-07-02T12:57:42;14.10;;;7.75;;
76574;SDS011;65439;50.948;6.988;2023-07-02T13:00:08;14.60;;;7.13;;
76574;SDS011;65439;50.948;6.988;2023-07-02T13:02:34;15.18;;;8.10;;
76574;SDS011;65439;50.948;6.988;2023-07-02T13:04:59;21.67;;;8.37;;
76574;SDS011;65439;50.948;6.988;2023-07-02T13:07:24;15.63;;;7.82;;
76574;SDS011;65439;50.948;6.988;2023-07-02T13:09:50;12.88;;;7.60;;
76574;SDS011;65439;50.948;6.988;2023-07-02T13:12:16;19.33;;;9.20;;
76574;SDS011;65439;50.948;6.988;2023-07-02T13:14:42;16.87;;;8.67;;
76574;SDS011;65439;50.948;6.988;2023-07-02T13:19:32;15.80;;;7.47;;
76574;SDS011;65439;50.948;6.988;2023-07-02T13:21:58;16.52;;;9.23;;
76574;SDS011;65439;50.948;6.988;2023-07-02T13:24:23;18.08;;;9.10;;
76574;SDS011;65439;50.948;6.988;2023-07-02T13:29:14;16.73;;;8.93;;
76574;SDS011;65439;50.948;6.988;2023-07-02T13:31:39;18.27;;;9.53;;
76574;SDS011;65439;50.948;6.988;2023-07-02T13:34:04;23.47;;;9.30;;
76574;SDS011;65439;50.948;6.988;2023-07-02T13:36:30;18.23;;;10.33;;
76574;SDS011;65439;50.948;6.988;2023-07-02T13:41:20;18.60;;;8.70;;
76574;SDS011;65439;50.948;6.988;2023-07-02T13:43:46;18.77;;;9.48;;
76574;SDS011;65439;50.948;6.988;2023-07-02T13:48:36;16.03;;;8.90;;
76574;SDS011;65439;50.948;6.988;2023-07-02T13:51:01;20.47;;;9.60;;
76574;SDS011;65439;50.948;6.988;2023-07-02T13:53:27;18.83;;;9.17;;
76574;SDS011;65439;50.948;6.988;2023-07-02T13:55:52;19.43;;;10.03;;
76574;SDS011;65439;50.948;6.988;2023-07-02T13:58:17;22.30;;;10.13;;
76574;SDS011;65439;50.948;6.988;2023-07-02T14:03:08;19.70;;;9.47;;
76574;SDS011;65439;50.948;6.988;2023-07-02T14:07:58;18.67;;;8.83;;
76574;SDS011;65439;50.948;6.988;2023-07-02T14:10:24;18.40;;;8.80;;
76574;SDS011;65439;50.948;6.988;2023-07-02T14:15:14;16.70;;;9.63;;
76574;SDS011;65439;50.948;6.988;2023-07-02T14:20:06;17.10;;;10.33;;
76574;SDS011;65439;50.948;6.988;2023-07-02T14:22:33;15.13;;;9.07;;
76574;SDS011;65439;50.948;6.988;2023-07-02T14:24:59;19.35;;;10.10;;
76574;SDS011;65439;50.948;6.988;2023-07-02T14:29:49;21.00;;;9.63;;
76574;SDS011;65439;50.948;6.988;2023-07-02T14:34:40;17.75;;;10.60;;
76574;SDS011;65439;50.948;6.988;2023-07-02T14:39:31;16.50;;;9.33;;
76574;SDS011;65439;50.948;6.988;2023-07-02T14:44:22;18.50;;;9.70;;
76574;SDS011;65439;50.948;6.988;2023-07-02T14:46:47;21.23;;;9.70;;
76574;SDS011;65439;50.948;6.988;2023-07-02T14:49:13;18.67;;;10.10;;
76574;SDS011;65439;50.948;6.988;2023-07-02T14:51:39;15.70;;;8.80;;
76574;SDS011;65439;50.948;6.988;2023-07-02T14:54:05;16.77;;;8.48;;
76574;SDS011;65439;50.948;6.988;2023-07-02T14:56:31;20.58;;;9.57;;
76574;SDS011;65439;50.948;6.988;2023-07-02T14:58:56;21.30;;;10.35;;
76574;SDS011;65439;50.948;6.988;2023-07-02T15:03:47;16.63;;;10.33;;
76574;SDS011;65439;50.948;6.988;2023-07-02T15:08:39;18.38;;;9.45;;
76574;SDS011;65439;50.948;6.988;2023-07-02T15:11:04;18.58;;;10.18;;
76574;SDS011;65439;50.948;6.988;2023-07-02T15:13:30;17.60;;;9.40;;